createdAt,value
2019-03-24T00:01:14.370Z,1.55
2019-03-24T00:03:41.642Z,1.62
2019-03-24T00:06:08.915Z,1.32
2019-03-24T00:08:36.303Z,0.90
2019-03-24T00:11:03.632Z,1.30
2019-03-24T00:13:30.926Z,1.55
2019-03-24T00:15:58.747Z,1.52
2019-03-24T00:18:26.042Z,1.40
2019-03-24T00:20:53.324Z,1.50
2019-03-24T00:23:20.678Z,1.00
2019-03-24T00:25:47.958Z,1.45
2019-03-24T00:28:15.243Z,1.20
2019-03-24T00:30:42.518Z,1.62
2019-03-24T00:33:09.782Z,1.50
2019-03-24T00:35:37.067Z,1.75
2019-03-24T00:38:07.084Z,1.12
2019-03-24T00:40:34.364Z,1.37
2019-03-24T00:43:01.914Z,1.37
2019-03-24T00:45:36.737Z,1.20
2019-03-24T00:47:58.286Z,2.08
2019-03-24T00:50:25.562Z,1.72
2019-03-24T00:52:52.842Z,1.37
2019-03-24T00:55:20.113Z,1.55
2019-03-24T00:57:47.470Z,1.30
2019-03-24T01:00:15.663Z,1.77
2019-03-24T01:02:43.088Z,1.00
2019-03-24T01:05:11.345Z,1.60
2019-03-24T01:07:38.681Z,1.52
2019-03-24T01:10:06.825Z,1.55
2019-03-24T01:12:34.093Z,1.20
2019-03-24T01:15:01.446Z,0.98
2019-03-24T01:17:28.729Z,1.07
2019-03-24T01:19:56.065Z,1.32
2019-03-24T01:22:23.474Z,1.57
2019-03-24T01:24:50.725Z,1.37
2019-03-24T01:27:18.229Z,1.42
2019-03-24T01:29:45.503Z,1.22
2019-03-24T01:32:12.805Z,1.55
2019-03-24T01:34:40.129Z,1.60
2019-03-24T01:37:07.459Z,1.65
2019-03-24T01:39:34.749Z,1.10
2019-03-24T01:42:02.013Z,1.25
2019-03-24T01:44:29.302Z,0.90
2019-03-24T01:46:56.591Z,1.12
2019-03-24T01:49:23.873Z,1.25
2019-03-24T01:51:51.161Z,1.32
2019-03-24T01:54:18.425Z,1.20
2019-03-24T01:56:45.718Z,0.95
2019-03-24T01:59:12.986Z,1.17
2019-03-24T02:01:40.282Z,1.27
2019-03-24T02:04:07.554Z,1.05
2019-03-24T02:06:34.848Z,1.00
2019-03-24T02:09:02.125Z,1.30
2019-03-24T02:11:29.413Z,0.75
2019-03-24T02:13:56.686Z,1.20
2019-03-24T02:16:23.946Z,1.17
2019-03-24T02:18:51.294Z,0.65
2019-03-24T02:21:18.567Z,0.85
2019-03-24T02:23:45.842Z,0.98
2019-03-24T02:26:13.122Z,0.98
2019-03-24T02:28:40.421Z,1.30
2019-03-24T02:31:07.772Z,1.30
2019-03-24T02:33:35.051Z,1.25
2019-03-24T02:36:02.383Z,1.42
2019-03-24T02:38:29.711Z,0.90
2019-03-24T02:40:56.961Z,1.30
2019-03-24T02:43:24.253Z,0.90
2019-03-24T02:45:51.517Z,1.35
2019-03-24T02:48:18.797Z,1.30
2019-03-24T02:50:46.273Z,1.22
2019-03-24T02:53:13.551Z,1.65
2019-03-24T02:55:40.836Z,0.95
2019-03-24T02:58:08.109Z,0.90
2019-03-24T03:00:35.668Z,1.30
2019-03-24T03:03:02.924Z,1.25
2019-03-24T03:05:30.186Z,1.40
2019-03-24T03:07:57.479Z,1.00
2019-03-24T03:10:24.759Z,0.60
2019-03-24T03:12:52.028Z,0.80
2019-03-24T03:15:19.292Z,1.27
2019-03-24T03:17:46.641Z,1.20
2019-03-24T03:20:14.275Z,1.00
2019-03-24T03:22:41.571Z,2.42
2019-03-24T03:25:09.747Z,1.60
2019-03-24T03:27:37.023Z,1.50
2019-03-24T03:30:05.757Z,0.90
2019-03-24T03:32:33.107Z,1.00
2019-03-24T03:35:00.928Z,0.62
2019-03-24T03:37:28.366Z,1.00
2019-03-24T03:39:58.127Z,0.98
2019-03-24T03:42:24.617Z,0.93
2019-03-24T03:44:51.910Z,0.60
2019-03-24T03:47:20.815Z,1.20
2019-03-24T03:49:48.099Z,1.00
2019-03-24T03:52:15.473Z,0.93
2019-03-24T03:54:42.769Z,1.17
2019-03-24T03:57:10.090Z,1.05
2019-03-24T03:59:37.394Z,0.80
2019-03-24T04:02:04.708Z,1.02
2019-03-24T04:04:32.001Z,1.07
2019-03-24T04:06:59.360Z,0.90
2019-03-24T04:09:26.630Z,0.75
2019-03-24T04:11:53.918Z,1.30
2019-03-24T04:14:21.175Z,1.00
2019-03-24T04:16:48.486Z,1.05
2019-03-24T04:19:15.806Z,1.05
2019-03-24T04:21:43.098Z,1.20
2019-03-24T04:24:10.435Z,1.15
2019-03-24T04:26:37.708Z,1.22
2019-03-24T04:29:04.994Z,1.05
2019-03-24T04:31:32.326Z,0.85
2019-03-24T04:33:59.637Z,1.30
2019-03-24T04:36:26.985Z,1.00
2019-03-24T04:38:54.296Z,1.00
2019-03-24T04:41:21.567Z,1.00
2019-03-24T04:43:48.829Z,1.02
2019-03-24T04:46:16.157Z,1.05
2019-03-24T04:48:43.416Z,0.80
2019-03-24T04:51:10.694Z,0.90
2019-03-24T04:53:38.031Z,0.85
2019-03-24T04:56:05.336Z,0.80
2019-03-24T04:58:32.618Z,1.10
2019-03-24T05:00:59.919Z,1.10
2019-03-24T05:03:27.326Z,1.00
2019-03-24T05:05:55.291Z,1.30
2019-03-24T05:08:23.611Z,1.12
2019-03-24T05:10:50.899Z,0.65
2019-03-24T05:13:18.167Z,0.95
2019-03-24T05:15:45.448Z,1.15
2019-03-24T05:18:12.790Z,1.80
2019-03-24T05:20:40.127Z,2.33
2019-03-24T05:23:07.578Z,1.50
2019-03-24T05:25:34.869Z,1.75
2019-03-24T05:28:02.129Z,1.62
2019-03-24T05:30:29.461Z,1.40
2019-03-24T05:32:56.736Z,1.00
2019-03-24T05:35:24.485Z,1.50
2019-03-24T05:37:51.893Z,0.88
2019-03-24T05:40:19.194Z,1.57
2019-03-24T05:42:46.463Z,1.50
2019-03-24T05:45:13.814Z,1.45
2019-03-24T05:47:41.075Z,1.02
2019-03-24T05:50:08.498Z,1.12
2019-03-24T05:52:35.757Z,0.80
2019-03-24T05:55:03.773Z,1.07
2019-03-24T05:57:31.117Z,1.10
2019-03-24T05:59:58.398Z,1.20
2019-03-24T06:02:25.733Z,0.98
2019-03-24T06:04:53.013Z,0.80
2019-03-24T06:07:20.269Z,0.90
2019-03-24T06:09:47.569Z,0.78
2019-03-24T06:12:14.991Z,1.00
2019-03-24T06:14:42.320Z,0.93
2019-03-24T06:17:09.606Z,0.72
2019-03-24T06:19:36.885Z,1.00
2019-03-24T06:22:04.150Z,1.00
2019-03-24T06:24:31.410Z,0.90
2019-03-24T06:26:58.694Z,1.30
2019-03-24T06:29:25.954Z,1.00
2019-03-24T06:31:53.247Z,1.07
2019-03-24T06:34:20.538Z,1.20
2019-03-24T06:36:47.894Z,0.72
2019-03-24T06:39:15.181Z,1.00
2019-03-24T06:41:42.445Z,0.90
2019-03-24T06:44:09.756Z,1.40
2019-03-24T06:46:37.093Z,1.10
2019-03-24T06:49:04.382Z,0.88
2019-03-24T06:51:31.657Z,1.10
2019-03-24T06:53:58.943Z,1.20
2019-03-24T06:56:26.195Z,1.65
2019-03-24T06:58:53.504Z,1.20
2019-03-24T07:01:20.766Z,1.52
2019-03-24T07:03:48.078Z,1.17
2019-03-24T07:06:15.407Z,2.27
2019-03-24T07:08:42.692Z,1.92
2019-03-24T07:11:13.700Z,1.02
2019-03-24T07:13:38.962Z,0.70
2019-03-24T07:16:06.285Z,1.32
2019-03-24T07:18:33.622Z,1.82
2019-03-24T07:21:00.902Z,2.22
2019-03-24T07:23:28.174Z,1.77
2019-03-24T07:25:55.509Z,1.85
2019-03-24T07:28:24.865Z,1.12
2019-03-24T07:30:51.859Z,1.30
2019-03-24T07:33:19.204Z,2.00
2019-03-24T07:35:46.480Z,1.07
2019-03-24T07:38:13.743Z,1.12
2019-03-24T07:40:41.000Z,1.10
2019-03-24T07:43:08.283Z,1.72
2019-03-24T07:45:35.546Z,0.88
2019-03-24T07:48:02.821Z,1.52
2019-03-24T07:50:30.689Z,1.02
2019-03-24T07:52:57.952Z,1.62
2019-03-24T07:55:25.254Z,1.65
2019-03-24T07:57:52.537Z,1.50
2019-03-24T08:00:21.352Z,2.22
2019-03-24T08:02:51.285Z,1.12
2019-03-24T08:05:20.871Z,1.45
2019-03-24T08:07:48.145Z,1.35
2019-03-24T08:10:15.442Z,1.30
2019-03-24T08:12:42.756Z,1.55
2019-03-24T08:15:10.348Z,2.30
2019-03-24T08:17:37.622Z,2.12
2019-03-24T08:20:05.980Z,2.12
2019-03-24T08:22:33.234Z,1.57
2019-03-24T08:25:00.533Z,1.57
2019-03-24T08:27:27.801Z,1.50
2019-03-24T08:29:55.102Z,2.30
2019-03-24T08:32:22.361Z,1.50
2019-03-24T08:34:49.652Z,2.02
2019-03-24T08:37:16.910Z,1.40
2019-03-24T08:39:44.207Z,1.12
2019-03-24T08:42:11.486Z,1.75
2019-03-24T08:44:38.770Z,3.05
2019-03-24T08:47:06.087Z,1.87
2019-03-24T08:49:33.440Z,1.70
2019-03-24T08:52:00.756Z,2.33
2019-03-24T08:54:28.065Z,2.80
2019-03-24T08:56:55.394Z,1.27
2019-03-24T08:59:22.697Z,1.60
2019-03-24T09:01:49.991Z,2.00
2019-03-24T09:04:17.346Z,1.85
2019-03-24T09:06:44.678Z,1.45
2019-03-24T09:09:12.023Z,1.25
2019-03-24T09:11:39.296Z,1.30
2019-03-24T09:14:06.592Z,7.72
2019-03-24T09:16:33.938Z,2.87
2019-03-24T09:19:01.202Z,2.30
2019-03-24T09:21:28.496Z,1.50
2019-03-24T09:23:55.758Z,1.30
2019-03-24T09:26:23.043Z,1.55
2019-03-24T09:28:50.295Z,1.50
2019-03-24T09:31:17.630Z,2.05
2019-03-24T09:33:44.929Z,2.30
2019-03-24T09:36:12.523Z,2.35
2019-03-24T09:38:39.793Z,2.42
2019-03-24T09:41:07.061Z,2.95
2019-03-24T09:43:34.352Z,2.62
2019-03-24T09:46:01.658Z,2.35
2019-03-24T09:48:28.946Z,2.05
2019-03-24T09:50:56.218Z,2.42
2019-03-24T09:53:23.514Z,2.12
2019-03-24T09:55:50.841Z,2.55
2019-03-24T09:58:18.194Z,2.08
2019-03-24T10:00:45.624Z,2.22
2019-03-24T10:03:12.913Z,2.50
2019-03-24T10:05:40.522Z,2.33
2019-03-24T10:08:07.837Z,2.27
2019-03-24T10:10:35.250Z,1.72
2019-03-24T10:13:02.621Z,2.42
2019-03-24T10:15:30.974Z,1.85
2019-03-24T10:17:58.238Z,2.40
2019-03-24T10:20:25.498Z,1.30
2019-03-24T10:22:52.867Z,2.20
2019-03-24T10:25:20.137Z,1.82
2019-03-24T10:27:47.482Z,2.98
2019-03-24T10:30:14.945Z,2.40
2019-03-24T10:32:42.321Z,3.37
2019-03-24T10:35:09.673Z,2.33
2019-03-24T10:37:36.973Z,2.80
2019-03-24T10:40:05.157Z,3.30
2019-03-24T10:42:32.420Z,2.95
2019-03-24T10:44:59.739Z,2.72
2019-03-24T10:47:27.013Z,2.20
2019-03-24T10:49:54.278Z,3.60
2019-03-24T10:52:21.572Z,3.00
2019-03-24T10:54:48.902Z,2.50
2019-03-24T10:57:16.194Z,2.90
2019-03-24T10:59:43.461Z,3.17
2019-03-24T11:02:10.967Z,3.00
2019-03-24T11:04:38.229Z,2.70
2019-03-24T11:07:05.529Z,3.17
2019-03-24T11:09:32.875Z,2.37
2019-03-24T11:12:00.238Z,3.10
2019-03-24T11:14:27.799Z,3.40
2019-03-24T11:16:55.124Z,3.17
2019-03-24T11:19:22.400Z,2.80
2019-03-24T11:21:49.673Z,3.72
2019-03-24T11:24:16.968Z,3.37
2019-03-24T11:26:44.235Z,4.30
2019-03-24T11:29:11.660Z,4.58
2019-03-24T11:31:38.938Z,3.33
2019-03-24T11:34:06.223Z,4.45
2019-03-24T11:36:33.582Z,4.80
2019-03-24T11:39:01.666Z,3.55
2019-03-24T11:41:29.060Z,3.25
2019-03-24T11:43:56.324Z,3.83
2019-03-24T11:46:23.666Z,3.72
2019-03-24T11:48:50.918Z,3.27
2019-03-24T11:51:18.207Z,2.87
2019-03-24T11:53:45.478Z,2.87
2019-03-24T11:56:12.811Z,3.35
2019-03-24T11:58:40.101Z,2.37
2019-03-24T12:01:07.444Z,2.55
2019-03-24T12:03:34.717Z,2.40
2019-03-24T12:06:02.067Z,3.83
2019-03-24T12:08:29.342Z,3.02
2019-03-24T12:10:56.614Z,4.65
2019-03-24T12:13:23.899Z,4.22
2019-03-24T12:15:51.176Z,5.05
2019-03-24T12:18:18.467Z,4.67
2019-03-24T12:20:46.392Z,4.05
2019-03-24T12:23:13.917Z,5.03
2019-03-24T12:25:41.352Z,4.83
2019-03-24T12:28:08.654Z,4.50
2019-03-24T12:30:35.919Z,5.05
2019-03-24T12:33:03.257Z,4.03
2019-03-24T12:35:30.601Z,4.95
2019-03-24T12:37:57.869Z,3.80
2019-03-24T12:40:25.163Z,4.83
2019-03-24T12:42:55.543Z,3.87
2019-03-24T12:45:22.781Z,3.83
2019-03-24T12:47:50.078Z,3.90
2019-03-24T12:50:17.417Z,2.55
2019-03-24T12:52:44.722Z,2.52
2019-03-24T12:55:11.997Z,2.75
2019-03-24T12:57:39.282Z,3.15
2019-03-24T13:00:08.315Z,2.85
2019-03-24T13:02:35.734Z,2.70
2019-03-24T13:05:03.973Z,2.25
2019-03-24T13:07:31.304Z,2.00
2019-03-24T13:09:58.583Z,2.10
2019-03-24T13:12:35.979Z,1.75
2019-03-24T13:14:54.857Z,1.98
2019-03-24T13:17:22.198Z,2.20
2019-03-24T13:19:49.507Z,2.37
2019-03-24T13:22:16.772Z,1.82
2019-03-24T13:24:44.167Z,1.82
2019-03-24T13:27:11.422Z,1.55
2019-03-24T13:29:38.681Z,1.75
2019-03-24T13:32:06.250Z,1.67
2019-03-24T13:34:33.513Z,1.82
2019-03-24T13:37:00.815Z,2.27
2019-03-24T13:39:28.072Z,1.80
2019-03-24T13:41:55.357Z,2.50
2019-03-24T13:44:22.617Z,1.82
2019-03-24T13:46:49.905Z,2.45
2019-03-24T13:49:17.164Z,2.33
2019-03-24T13:51:44.465Z,1.92
2019-03-24T13:54:11.734Z,2.22
2019-03-24T13:56:38.997Z,1.65
2019-03-24T13:59:06.286Z,2.47
2019-03-24T14:01:33.564Z,2.20
2019-03-24T14:04:00.899Z,2.30
2019-03-24T14:06:28.191Z,2.20
2019-03-24T14:08:55.505Z,2.02
2019-03-24T14:11:24.232Z,1.55
2019-03-24T14:13:51.847Z,2.72
2019-03-24T14:16:19.105Z,2.42
2019-03-24T14:18:46.383Z,2.22
2019-03-24T14:21:13.649Z,1.42
2019-03-24T14:23:40.949Z,1.57
2019-03-24T14:26:08.240Z,2.85
2019-03-24T14:28:35.653Z,1.62
2019-03-24T14:31:02.936Z,2.27
2019-03-24T14:33:30.294Z,1.60
2019-03-24T14:36:00.288Z,1.42
2019-03-24T14:38:27.555Z,1.62
2019-03-24T14:40:54.811Z,1.57
2019-03-24T14:43:22.100Z,1.35
2019-03-24T14:45:49.356Z,1.80
2019-03-24T14:48:16.635Z,1.70
2019-03-24T14:50:53.927Z,2.05
2019-03-24T14:53:13.003Z,1.95
2019-03-24T14:55:40.343Z,1.77
2019-03-24T14:58:07.610Z,1.60
2019-03-24T15:00:39.336Z,1.40
2019-03-24T15:03:06.649Z,2.12
2019-03-24T15:05:34.462Z,1.72
2019-03-24T15:08:02.597Z,1.87
2019-03-24T15:10:29.941Z,1.00
2019-03-24T15:12:57.215Z,1.67
2019-03-24T15:15:24.466Z,2.02
2019-03-24T15:17:51.753Z,1.50
2019-03-24T15:20:19.040Z,1.80
2019-03-24T15:22:46.322Z,1.20
2019-03-24T15:25:13.693Z,1.80
2019-03-24T15:27:41.903Z,1.30
2019-03-24T15:30:09.732Z,2.02
2019-03-24T15:32:37.015Z,2.20
2019-03-24T15:35:07.507Z,1.90
2019-03-24T15:37:36.972Z,2.30
2019-03-24T15:40:05.108Z,1.95
2019-03-24T15:42:32.444Z,2.30
2019-03-24T15:44:59.720Z,2.70
2019-03-24T15:47:26.986Z,2.67
2019-03-24T15:49:54.288Z,1.70
2019-03-24T15:52:21.595Z,1.98
2019-03-24T15:54:48.888Z,2.20
2019-03-24T15:57:16.162Z,2.40
2019-03-24T15:59:43.521Z,1.80
2019-03-24T16:02:12.715Z,1.90
2019-03-24T16:04:55.292Z,3.00
2019-03-24T16:07:22.563Z,2.60
2019-03-24T16:09:49.839Z,2.67
2019-03-24T16:12:17.110Z,2.42
2019-03-24T16:14:44.465Z,2.58
2019-03-24T16:17:11.754Z,2.47
2019-03-24T16:19:39.081Z,2.60
2019-03-24T16:22:06.355Z,2.60
2019-03-24T16:24:33.654Z,2.33
2019-03-24T16:27:01.179Z,2.12
2019-03-24T16:29:28.723Z,2.45
2019-03-24T16:31:56.003Z,1.70
2019-03-24T16:34:23.296Z,2.08
2019-03-24T16:36:50.546Z,2.50
2019-03-24T16:39:17.837Z,2.33
2019-03-24T16:41:45.096Z,2.05
2019-03-24T16:44:12.442Z,2.15
2019-03-24T16:46:39.706Z,2.00
2019-03-24T16:49:07.017Z,1.95
2019-03-24T16:51:38.391Z,2.05
2019-03-24T16:54:03.620Z,2.08
2019-03-24T16:56:30.954Z,2.42
2019-03-24T16:58:58.297Z,1.85
2019-03-24T17:01:25.570Z,2.10
2019-03-24T17:03:52.861Z,2.27
2019-03-24T17:06:20.195Z,2.72
2019-03-24T17:08:47.490Z,2.22
2019-03-24T17:11:14.761Z,1.82
2019-03-24T17:13:42.013Z,2.10
2019-03-24T17:16:09.301Z,1.90
2019-03-24T17:18:36.553Z,1.82
2019-03-24T17:21:06.180Z,1.80
2019-03-24T17:23:33.177Z,2.15
2019-03-24T17:26:00.446Z,2.42
2019-03-24T17:28:27.825Z,2.25
2019-03-24T17:30:55.105Z,1.62
2019-03-24T17:33:22.512Z,1.80
2019-03-24T17:35:49.849Z,1.72
2019-03-24T17:38:17.134Z,2.17
2019-03-24T17:40:44.399Z,1.90
2019-03-24T17:43:11.761Z,1.52
2019-03-24T17:45:39.107Z,2.17
2019-03-24T17:48:06.459Z,2.30
2019-03-24T17:50:33.894Z,2.02
2019-03-24T17:53:01.261Z,2.35
2019-03-24T17:55:31.044Z,2.95
2019-03-24T17:57:58.352Z,1.65
2019-03-24T18:00:43.249Z,1.80
2019-03-24T18:03:10.590Z,2.00
2019-03-24T18:05:37.970Z,1.50
2019-03-24T18:08:05.307Z,1.92
2019-03-24T18:10:32.615Z,2.22
2019-03-24T18:12:59.925Z,5.97
2019-03-24T18:15:27.209Z,3.15
2019-03-24T18:17:54.514Z,2.75
2019-03-24T18:20:28.819Z,2.42
2019-03-24T18:22:56.186Z,2.27
2019-03-24T18:25:23.512Z,2.15
2019-03-24T18:27:50.777Z,1.92
2019-03-24T18:30:18.209Z,1.80
2019-03-24T18:32:45.495Z,1.77
2019-03-24T18:35:13.153Z,2.45
2019-03-24T18:37:40.499Z,2.65
2019-03-24T18:40:08.034Z,2.35
2019-03-24T18:42:35.317Z,3.05
2019-03-24T18:45:02.659Z,3.30
2019-03-24T18:47:29.953Z,2.70
2019-03-24T18:49:57.222Z,3.65
2019-03-24T18:52:24.674Z,3.00
2019-03-24T18:54:52.025Z,4.87
2019-03-24T18:57:19.299Z,4.42
2019-03-24T18:59:46.611Z,4.53
2019-03-24T19:02:13.947Z,3.58
2019-03-24T19:04:41.217Z,2.87
2019-03-24T19:07:08.517Z,3.00
2019-03-24T19:09:35.875Z,2.90
2019-03-24T19:12:03.169Z,2.55
2019-03-24T19:14:30.442Z,2.42
2019-03-24T19:16:57.710Z,2.67
2019-03-24T19:19:25.010Z,2.42
2019-03-24T19:21:52.274Z,1.98
2019-03-24T19:24:19.557Z,2.42
2019-03-24T19:26:46.835Z,2.85
2019-03-24T19:29:14.095Z,2.70
2019-03-24T19:31:41.437Z,2.30
2019-03-24T19:34:08.779Z,2.17
2019-03-24T19:36:36.339Z,2.00
2019-03-24T19:39:05.428Z,2.17
2019-03-24T19:41:32.681Z,2.50
2019-03-24T19:43:59.929Z,2.27
2019-03-24T19:46:27.210Z,2.52
2019-03-24T19:48:54.502Z,1.92
2019-03-24T19:51:23.819Z,1.82
2019-03-24T19:53:51.106Z,1.65
2019-03-24T19:56:18.363Z,2.22
2019-03-24T19:58:45.653Z,2.30
2019-03-24T20:01:12.947Z,1.42
2019-03-24T20:03:59.662Z,1.52
2019-03-24T20:06:26.930Z,1.87
2019-03-24T20:08:54.213Z,2.25
2019-03-24T20:11:21.481Z,2.50
2019-03-24T20:13:48.761Z,1.82
2019-03-24T20:16:16.044Z,1.50
2019-03-24T20:18:43.351Z,2.22
2019-03-24T20:21:10.876Z,2.02
2019-03-24T20:23:38.190Z,2.50
2019-03-24T20:26:05.545Z,2.17
2019-03-24T20:28:32.854Z,2.45
2019-03-24T20:31:00.144Z,1.80
2019-03-24T20:33:27.631Z,2.20
2019-03-24T20:35:54.917Z,3.05
2019-03-24T20:38:22.227Z,2.75
2019-03-24T20:40:49.590Z,2.98
2019-03-24T20:43:16.881Z,3.17
2019-03-24T20:45:44.175Z,2.50
2019-03-24T20:48:11.438Z,1.72
2019-03-24T20:50:38.735Z,1.90
2019-03-24T20:53:17.550Z,2.20
2019-03-24T20:55:35.022Z,1.92
2019-03-24T20:58:02.289Z,2.45
2019-03-24T21:00:32.831Z,2.47
2019-03-24T21:03:00.200Z,2.02
2019-03-24T21:05:27.477Z,2.50
2019-03-24T21:07:58.436Z,2.10
2019-03-24T21:10:25.859Z,1.80
2019-03-24T21:12:53.208Z,2.37
2019-03-24T21:15:20.494Z,2.20
2019-03-24T21:17:47.782Z,2.02
2019-03-24T21:20:15.059Z,1.60
2019-03-24T21:22:42.355Z,2.08
2019-03-24T21:25:10.496Z,1.55
2019-03-24T21:27:37.786Z,2.47
2019-03-24T21:30:06.586Z,2.08
2019-03-24T21:32:33.879Z,1.90
2019-03-24T21:35:01.138Z,1.60
2019-03-24T21:37:28.416Z,1.30
2019-03-24T21:39:55.690Z,1.65
2019-03-24T21:42:23.030Z,1.77
2019-03-24T21:44:50.311Z,1.42
2019-03-24T21:47:17.590Z,1.98
2019-03-24T21:49:44.923Z,2.15
2019-03-24T21:52:12.410Z,1.77
2019-03-24T21:54:39.681Z,1.60
2019-03-24T21:57:07.200Z,2.37
2019-03-24T21:59:34.457Z,2.12
2019-03-24T22:02:01.764Z,2.00
2019-03-24T22:04:29.132Z,1.65
2019-03-24T22:06:56.458Z,2.12
2019-03-24T22:09:23.863Z,1.70
2019-03-24T22:11:51.131Z,2.00
2019-03-24T22:14:18.424Z,2.25
2019-03-24T22:16:45.682Z,2.10
2019-03-24T22:19:12.966Z,2.47
2019-03-24T22:21:40.230Z,3.10
2019-03-24T22:24:07.558Z,3.22
2019-03-24T22:26:34.971Z,3.12
2019-03-24T22:29:02.288Z,2.83
2019-03-24T22:31:29.573Z,2.60
2019-03-24T22:33:56.862Z,2.87
2019-03-24T22:36:24.592Z,2.40
2019-03-24T22:38:51.973Z,2.15
2019-03-24T22:41:19.469Z,1.75
2019-03-24T22:43:46.716Z,2.20
2019-03-24T22:46:14.000Z,1.60
2019-03-24T22:48:41.263Z,1.87
2019-03-24T22:51:08.543Z,2.00
2019-03-24T22:53:35.805Z,1.60
2019-03-24T22:56:03.420Z,1.87
2019-03-24T22:58:30.686Z,1.67
2019-03-24T23:00:58.305Z,1.82
2019-03-24T23:03:25.660Z,1.70
2019-03-24T23:05:53.251Z,1.90
2019-03-24T23:08:20.688Z,1.35
2019-03-24T23:10:47.933Z,1.95
2019-03-24T23:13:15.238Z,1.77
2019-03-24T23:15:42.512Z,1.27
2019-03-24T23:18:09.782Z,1.60
2019-03-24T23:20:37.060Z,1.77
2019-03-24T23:23:04.341Z,1.52
2019-03-24T23:25:31.799Z,1.67
2019-03-24T23:27:59.078Z,1.92
2019-03-24T23:30:26.354Z,1.30
2019-03-24T23:32:53.608Z,2.17
2019-03-24T23:35:20.899Z,2.35
2019-03-24T23:37:48.162Z,2.17
2019-03-24T23:40:15.525Z,2.20
2019-03-24T23:42:42.781Z,2.60
2019-03-24T23:45:10.105Z,1.90
2019-03-24T23:47:37.393Z,2.08
2019-03-24T23:50:07.605Z,2.40
2019-03-24T23:52:34.880Z,2.83
2019-03-24T23:55:02.143Z,2.15
2019-03-24T23:57:29.417Z,2.02
2019-03-24T23:59:56.685Z,1.90
